sensor_id;sensor_type;location;lat;lon;timestamp;temperature;humidity
1950;DHT22;975;48.760;9.152;2022-12-31T01:36:08;12.10;99.90
1950;DHT22;975;48.760;9.152;2022-12-31T03:20:15;14.40;99.90
1950;DHT22;975;48.760;9.152;2022-12-31T03:23:00;14.90;99.90
1950;DHT22;975;48.760;9.152;2022-12-31T03:25:29;14.90;99.90
1950;DHT22;975;48.760;9.152;2022-12-31T03:27:59;14.90;99.90
1950;DHT22;975;48.760;9.152;2022-12-31T03:30:28;14.90;99.90
1950;DHT22;975;48.760;9.152;2022-12-31T03:32:58;15.00;99.90
1950;DHT22;975;48.760;9.152;2022-12-31T03:35:27;14.90;99.90
1950;DHT22;975;48.760;9.152;2022-12-31T03:37:55;15.00;99.90
1950;DHT22;975;48.760;9.152;2022-12-31T04:24:52;15.60;99.90
1950;DHT22;975;48.760;9.152;2022-12-31T04:27:19;15.90;99.90
1950;DHT22;975;48.760;9.152;2022-12-31T04:29:50;15.90;99.90
1950;DHT22;975;48.760;9.152;2022-12-31T04:32:17;15.90;99.90
1950;DHT22;975;48.760;9.152;2022-12-31T04:34:44;15.90;99.90
1950;DHT22;975;48.760;9.152;2022-12-31T04:37:11;15.90;99.90
1950;DHT22;975;48.760;9.152;2022-12-31T04:39:39;15.90;99.90
1950;DHT22;975;48.760;9.152;2022-12-31T04:42:08;15.90;99.90
1950;DHT22;975;48.760;9.152;2022-12-31T04:44:35;15.90;99.90
1950;DHT22;975;48.760;9.152;2022-12-31T04:47:02;15.80;99.90
1950;DHT22;975;48.760;9.152;2022-12-31T04:49:30;15.80;99.90
1950;DHT22;975;48.760;9.152;2022-12-31T04:51:57;15.80;99.90
1950;DHT22;975;48.760;9.152;2022-12-31T04:54:25;15.80;99.90
1950;DHT22;975;48.760;9.152;2022-12-31T04:56:52;15.80;99.90
1950;DHT22;975;48.760;9.152;2022-12-31T04:59:21;15.70;99.90
1950;DHT22;975;48.760;9.152;2022-12-31T05:01:48;15.70;99.90
1950;DHT22;975;48.760;9.152;2022-12-31T05:04:16;15.80;99.90
1950;DHT22;975;48.760;9.152;2022-12-31T05:06:43;15.80;99.90
1950;DHT22;975;48.760;9.152;2022-12-31T05:09:10;15.80;99.90
1950;DHT22;975;48.760;9.152;2022-12-31T05:11:37;15.80;99.90
1950;DHT22;975;48.760;9.152;2022-12-31T05:14:05;15.80;99.90
1950;DHT22;975;48.760;9.152;2022-12-31T05:16:34;15.80;99.90
1950;DHT22;975;48.760;9.152;2022-12-31T05:19:01;15.80;99.90
1950;DHT22;975;48.760;9.152;2022-12-31T05:21:31;15.90;99.90
1950;DHT22;975;48.760;9.152;2022-12-31T05:23:58;15.90;99.90
1950;DHT22;975;48.760;9.152;2022-12-31T05:26:26;15.80;99.90
1950;DHT22;975;48.760;9.152;2022-12-31T05:28:53;15.70;99.90
1950;DHT22;975;48.760;9.152;2022-12-31T05:31:21;15.70;99.90
1950;DHT22;975;48.760;9.152;2022-12-31T05:33:51;15.70;99.90
1950;DHT22;975;48.760;9.152;2022-12-31T05:36:18;15.80;99.90
1950;DHT22;975;48.760;9.152;2022-12-31T05:38:46;15.70;99.90
1950;DHT22;975;48.760;9.152;2022-12-31T05:41:13;15.70;99.90
1950;DHT22;975;48.760;9.152;2022-12-31T05:43:41;15.60;99.90
1950;DHT22;975;48.760;9.152;2022-12-31T05:46:08;15.60;99.90
1950;DHT22;975;48.760;9.152;2022-12-31T05:48:35;15.70;99.90
1950;DHT22;975;48.760;9.152;2022-12-31T05:51:04;15.70;99.90
1950;DHT22;975;48.760;9.152;2022-12-31T05:53:32;15.70;99.90
1950;DHT22;975;48.760;9.152;2022-12-31T05:55:59;15.70;99.90
1950;DHT22;975;48.760;9.152;2022-12-31T05:58:27;15.70;99.90
1950;DHT22;975;48.760;9.152;2022-12-31T06:00:54;15.70;99.90
1950;DHT22;975;48.760;9.152;2022-12-31T06:03:21;15.80;99.90
1950;DHT22;975;48.760;9.152;2022-12-31T06:05:49;15.80;99.90
1950;DHT22;975;48.760;9.152;2022-12-31T06:08:17;15.70;99.90
1950;DHT22;975;48.760;9.152;2022-12-31T06:10:45;15.70;99.90
1950;DHT22;975;48.760;9.152;2022-12-31T06:13:13;15.60;99.90
1950;DHT22;975;48.760;9.152;2022-12-31T06:15:43;15.50;99.90
1950;DHT22;975;48.760;9.152;2022-12-31T06:18:10;15.60;99.90
1950;DHT22;975;48.760;9.152;2022-12-31T06:20:38;15.60;99.90
1950;DHT22;975;48.760;9.152;2022-12-31T06:23:05;15.60;99.90
1950;DHT22;975;48.760;9.152;2022-12-31T06:25:34;15.70;99.90
1950;DHT22;975;48.760;9.152;2022-12-31T06:28:02;15.70;99.90
1950;DHT22;975;48.760;9.152;2022-12-31T06:30:30;15.70;99.90
1950;DHT22;975;48.760;9.152;2022-12-31T06:32:57;15.70;99.90
1950;DHT22;975;48.760;9.152;2022-12-31T06:35:25;15.70;99.90
1950;DHT22;975;48.760;9.152;2022-12-31T06:37:52;15.60;99.90
1950;DHT22;975;48.760;9.152;2022-12-31T06:40:19;15.60;99.90
1950;DHT22;975;48.760;9.152;2022-12-31T06:42:48;15.60;99.90
1950;DHT22;975;48.760;9.152;2022-12-31T06:45:16;15.60;99.90
1950;DHT22;975;48.760;9.152;2022-12-31T06:47:43;15.60;99.90
1950;DHT22;975;48.760;9.152;2022-12-31T06:50:10;15.60;99.90
1950;DHT22;975;48.760;9.152;2022-12-31T06:52:38;15.60;99.90
1950;DHT22;975;48.760;9.152;2022-12-31T06:55:06;15.70;99.90
1950;DHT22;975;48.760;9.152;2022-12-31T06:57:34;15.70;99.90
1950;DHT22;975;48.760;9.152;2022-12-31T07:00:05;15.60;99.90
1950;DHT22;975;48.760;9.152;2022-12-31T07:03:08;15.60;99.90
1950;DHT22;975;48.760;9.152;2022-12-31T07:05:43;15.60;99.90
1950;DHT22;975;48.760;9.152;2022-12-31T07:08:24;15.50;99.90
1950;DHT22;975;48.760;9.152;2022-12-31T07:11:00;15.50;99.90
1950;DHT22;975;48.760;9.152;2022-12-31T07:13:49;15.50;99.90
1950;DHT22;975;48.760;9.152;2022-12-31T07:16:33;15.50;99.90
1950;DHT22;975;48.760;9.152;2022-12-31T07:19:14;15.40;99.90
1950;DHT22;975;48.760;9.152;2022-12-31T07:21:43;15.40;99.90
1950;DHT22;975;48.760;9.152;2022-12-31T07:24:12;15.40;99.90
1950;DHT22;975;48.760;9.152;2022-12-31T07:26:53;15.40;99.90
1950;DHT22;975;48.760;9.152;2022-12-31T07:29:27;15.40;99.90
1950;DHT22;975;48.760;9.152;2022-12-31T07:32:06;15.40;99.90
1950;DHT22;975;48.760;9.152;2022-12-31T07:34:42;15.30;99.90
1950;DHT22;975;48.760;9.152;2022-12-31T07:37:18;15.40;99.90
1950;DHT22;975;48.760;9.152;2022-12-31T07:39:59;15.40;99.90
1950;DHT22;975;48.760;9.152;2022-12-31T07:42:35;15.50;99.90
1950;DHT22;975;48.760;9.152;2022-12-31T07:45:09;15.60;99.90
1950;DHT22;975;48.760;9.152;2022-12-31T07:47:42;15.60;99.90
1950;DHT22;975;48.760;9.152;2022-12-31T07:50:16;15.60;99.90
1950;DHT22;975;48.760;9.152;2022-12-31T07:52:48;15.70;99.90
1950;DHT22;975;48.760;9.152;2022-12-31T07:55:15;15.70;99.90
1950;DHT22;975;48.760;9.152;2022-12-31T07:57:53;15.70;99.90
1950;DHT22;975;48.760;9.152;2022-12-31T08:00:25;15.70;99.90
1950;DHT22;975;48.760;9.152;2022-12-31T08:03:09;15.80;99.90
1950;DHT22;975;48.760;9.152;2022-12-31T08:05:47;15.80;99.90
1950;DHT22;975;48.760;9.152;2022-12-31T08:08:23;15.90;99.90
1950;DHT22;975;48.760;9.152;2022-12-31T08:11:03;15.90;99.90
1950;DHT22;975;48.760;9.152;2022-12-31T08:13:34;15.90;99.90
1950;DHT22;975;48.760;9.152;2022-12-31T08:16:02;15.90;99.90
1950;DHT22;975;48.760;9.152;2022-12-31T08:18:31;16.00;99.90
1950;DHT22;975;48.760;9.152;2022-12-31T08:21:05;16.00;99.90
1950;DHT22;975;48.760;9.152;2022-12-31T08:23:39;16.10;99.90
1950;DHT22;975;48.760;9.152;2022-12-31T08:26:17;16.10;99.90
1950;DHT22;975;48.760;9.152;2022-12-31T08:28:55;16.20;99.90
1950;DHT22;975;48.760;9.152;2022-12-31T08:31:28;16.30;99.90
1950;DHT22;975;48.760;9.152;2022-12-31T08:34:06;16.20;99.90
1950;DHT22;975;48.760;9.152;2022-12-31T08:36:42;16.20;99.90
1950;DHT22;975;48.760;9.152;2022-12-31T08:39:19;16.30;99.90
1950;DHT22;975;48.760;9.152;2022-12-31T08:41:53;16.30;99.90
1950;DHT22;975;48.760;9.152;2022-12-31T08:44:28;16.40;99.90
1950;DHT22;975;48.760;9.152;2022-12-31T08:47:05;16.50;99.90
1950;DHT22;975;48.760;9.152;2022-12-31T08:49:36;16.50;99.90
1950;DHT22;975;48.760;9.152;2022-12-31T08:52:07;16.40;99.90
1950;DHT22;975;48.760;9.152;2022-12-31T08:54:39;16.40;99.90
1950;DHT22;975;48.760;9.152;2022-12-31T08:57:14;16.30;99.90
1950;DHT22;975;48.760;9.152;2022-12-31T08:59:50;16.30;99.90
1950;DHT22;975;48.760;9.152;2022-12-31T09:02:54;16.40;99.90
1950;DHT22;975;48.760;9.152;2022-12-31T09:05:30;16.50;99.90
1950;DHT22;975;48.760;9.152;2022-12-31T09:08:07;16.50;99.90
1950;DHT22;975;48.760;9.152;2022-12-31T09:10:41;16.60;99.90
1950;DHT22;975;48.760;9.152;2022-12-31T09:13:17;16.70;99.90
1950;DHT22;975;48.760;9.152;2022-12-31T09:15:50;16.70;99.90
1950;DHT22;975;48.760;9.152;2022-12-31T09:18:20;16.70;99.90
1950;DHT22;975;48.760;9.152;2022-12-31T09:20:49;16.70;99.90
1950;DHT22;975;48.760;9.152;2022-12-31T09:23:17;16.80;99.90
1950;DHT22;975;48.760;9.152;2022-12-31T09:28:22;17.00;99.90
1950;DHT22;975;48.760;9.152;2022-12-31T09:30:59;17.10;99.90
1950;DHT22;975;48.760;9.152;2022-12-31T09:33:37;17.30;99.90
1950;DHT22;975;48.760;9.152;2022-12-31T09:36:10;17.30;99.90
1950;DHT22;975;48.760;9.152;2022-12-31T09:38:48;17.40;99.90
1950;DHT22;975;48.760;9.152;2022-12-31T09:41:29;17.40;99.90
1950;DHT22;975;48.760;9.152;2022-12-31T09:44:37;17.50;99.90
1950;DHT22;975;48.760;9.152;2022-12-31T09:47:42;17.50;99.90
1950;DHT22;975;48.760;9.152;2022-12-31T09:50:34;17.60;99.70
1950;DHT22;975;48.760;9.152;2022-12-31T11:33:50;18.00;99.00
1950;DHT22;975;48.760;9.152;2022-12-31T11:36:23;19.40;93.50
1950;DHT22;975;48.760;9.152;2022-12-31T11:38:52;19.30;93.60
1950;DHT22;975;48.760;9.152;2022-12-31T11:41:32;19.30;93.50
1950;DHT22;975;48.760;9.152;2022-12-31T11:44:10;19.40;93.60
1950;DHT22;975;48.760;9.152;2022-12-31T11:46:48;19.40;93.30
1950;DHT22;975;48.760;9.152;2022-12-31T11:49:44;19.50;93.10
1950;DHT22;975;48.760;9.152;2022-12-31T11:55:40;19.40;92.90
1950;DHT22;975;48.760;9.152;2022-12-31T11:58:13;19.50;93.20
1950;DHT22;975;48.760;9.152;2022-12-31T12:00:46;19.50;93.00
1950;DHT22;975;48.760;9.152;2022-12-31T12:03:16;19.50;92.50
1950;DHT22;975;48.760;9.152;2022-12-31T12:05:45;19.50;92.70
1950;DHT22;975;48.760;9.152;2022-12-31T12:08:13;19.60;92.60
1950;DHT22;975;48.760;9.152;2022-12-31T12:10:44;19.60;92.60
1950;DHT22;975;48.760;9.152;2022-12-31T12:13:19;19.70;92.50
1950;DHT22;975;48.760;9.152;2022-12-31T12:15:50;19.70;92.50
1950;DHT22;975;48.760;9.152;2022-12-31T12:18:23;19.90;92.50
1950;DHT22;975;48.760;9.152;2022-12-31T12:20:59;20.00;91.90
1950;DHT22;975;48.760;9.152;2022-12-31T12:23:27;20.00;91.90
1950;DHT22;975;48.760;9.152;2022-12-31T12:25:54;20.00;92.00
1950;DHT22;975;48.760;9.152;2022-12-31T12:28:23;20.00;91.70
1950;DHT22;975;48.760;9.152;2022-12-31T12:30:57;20.10;91.70
1950;DHT22;975;48.760;9.152;2022-12-31T12:33:25;20.00;91.60
1950;DHT22;975;48.760;9.152;2022-12-31T12:36:06;20.10;91.90
1950;DHT22;975;48.760;9.152;2022-12-31T12:38:35;20.10;91.30
1950;DHT22;975;48.760;9.152;2022-12-31T12:41:05;20.10;91.10
1950;DHT22;975;48.760;9.152;2022-12-31T12:43:35;20.10;90.90
1950;DHT22;975;48.760;9.152;2022-12-31T12:46:04;20.10;91.10
1950;DHT22;975;48.760;9.152;2022-12-31T12:48:36;20.10;91.10
1950;DHT22;975;48.760;9.152;2022-12-31T12:51:20;20.00;91.10
1950;DHT22;975;48.760;9.152;2022-12-31T12:53:57;20.00;91.40
1950;DHT22;975;48.760;9.152;2022-12-31T12:56:36;20.10;91.50
1950;DHT22;975;48.760;9.152;2022-12-31T12:59:29;20.20;90.90
1950;DHT22;975;48.760;9.152;2022-12-31T13:02:15;20.30;90.60
1950;DHT22;975;48.760;9.152;2022-12-31T13:04:56;20.40;90.30
1950;DHT22;975;48.760;9.152;2022-12-31T13:07:40;20.40;90.00
1950;DHT22;975;48.760;9.152;2022-12-31T13:10:22;20.20;90.40
1950;DHT22;975;48.760;9.152;2022-12-31T13:12:58;20.30;90.10
1950;DHT22;975;48.760;9.152;2022-12-31T13:15:34;20.20;89.50
1950;DHT22;975;48.760;9.152;2022-12-31T13:18:13;20.10;89.50
1950;DHT22;975;48.760;9.152;2022-12-31T13:20:48;20.00;89.90
1950;DHT22;975;48.760;9.152;2022-12-31T13:23:24;20.00;89.50
1950;DHT22;975;48.760;9.152;2022-12-31T13:26:00;20.00;89.10
1950;DHT22;975;48.760;9.152;2022-12-31T13:28:31;20.00;89.00
1950;DHT22;975;48.760;9.152;2022-12-31T13:31:01;20.10;89.20
1950;DHT22;975;48.760;9.152;2022-12-31T13:33:32;20.10;89.20
1950;DHT22;975;48.760;9.152;2022-12-31T13:36:03;20.00;88.70
1950;DHT22;975;48.760;9.152;2022-12-31T13:38:35;20.10;89.60
1950;DHT22;975;48.760;9.152;2022-12-31T13:41:09;20.10;90.10
1950;DHT22;975;48.760;9.152;2022-12-31T13:43:42;20.10;89.30
1950;DHT22;975;48.760;9.152;2022-12-31T13:46:17;20.10;89.80
1950;DHT22;975;48.760;9.152;2022-12-31T13:48:49;20.10;90.30
1950;DHT22;975;48.760;9.152;2022-12-31T13:51:25;20.00;89.50
1950;DHT22;975;48.760;9.152;2022-12-31T13:54:00;20.10;89.60
1950;DHT22;975;48.760;9.152;2022-12-31T13:56:34;20.10;89.50
1950;DHT22;975;48.760;9.152;2022-12-31T13:59:05;20.10;90.00
1950;DHT22;975;48.760;9.152;2022-12-31T14:01:39;20.00;90.00
1950;DHT22;975;48.760;9.152;2022-12-31T14:04:13;19.90;90.40
1950;DHT22;975;48.760;9.152;2022-12-31T14:06:45;19.90;90.90
1950;DHT22;975;48.760;9.152;2022-12-31T14:09:21;19.80;90.50
1950;DHT22;975;48.760;9.152;2022-12-31T14:12:00;19.90;90.50
1950;DHT22;975;48.760;9.152;2022-12-31T14:14:37;19.80;90.60
1950;DHT22;975;48.760;9.152;2022-12-31T14:17:14;19.90;91.00
1950;DHT22;975;48.760;9.152;2022-12-31T14:19:51;19.90;90.90
1950;DHT22;975;48.760;9.152;2022-12-31T14:22:30;19.90;90.80
1950;DHT22;975;48.760;9.152;2022-12-31T14:25:02;19.90;90.50
1950;DHT22;975;48.760;9.152;2022-12-31T14:27:33;19.90;90.90
1950;DHT22;975;48.760;9.152;2022-12-31T14:30:04;19.80;90.90
1950;DHT22;975;48.760;9.152;2022-12-31T14:32:44;19.60;90.90
1950;DHT22;975;48.760;9.152;2022-12-31T14:35:36;19.60;90.70
1950;DHT22;975;48.760;9.152;2022-12-31T14:38:14;19.60;90.70
1950;DHT22;975;48.760;9.152;2022-12-31T14:40:54;19.50;90.90
1950;DHT22;975;48.760;9.152;2022-12-31T14:43:32;19.50;90.90
1950;DHT22;975;48.760;9.152;2022-12-31T14:46:09;19.50;90.90
1950;DHT22;975;48.760;9.152;2022-12-31T14:48:40;19.50;90.70
1950;DHT22;975;48.760;9.152;2022-12-31T14:51:13;19.60;90.80
1950;DHT22;975;48.760;9.152;2022-12-31T14:53:50;19.50;90.90
1950;DHT22;975;48.760;9.152;2022-12-31T14:56:32;19.50;91.10
1950;DHT22;975;48.760;9.152;2022-12-31T14:59:23;19.50;91.10
1950;DHT22;975;48.760;9.152;2022-12-31T15:01:51;19.50;91.20
1950;DHT22;975;48.760;9.152;2022-12-31T15:04:29;19.40;91.80
1950;DHT22;975;48.760;9.152;2022-12-31T15:07:04;19.30;92.20
1950;DHT22;975;48.760;9.152;2022-12-31T15:09:50;19.20;92.50
1950;DHT22;975;48.760;9.152;2022-12-31T15:15:28;19.00;93.00
1950;DHT22;975;48.760;9.152;2022-12-31T15:18:20;18.90;93.70
1950;DHT22;975;48.760;9.152;2022-12-31T15:23:51;18.80;93.70
1950;DHT22;975;48.760;9.152;2022-12-31T15:26:21;18.80;93.90
1950;DHT22;975;48.760;9.152;2022-12-31T15:28:59;18.80;93.90
1950;DHT22;975;48.760;9.152;2022-12-31T15:31:27;18.70;94.30
1950;DHT22;975;48.760;9.152;2022-12-31T15:33:58;18.60;94.30
1950;DHT22;975;48.760;9.152;2022-12-31T15:36:27;18.50;94.60
1950;DHT22;975;48.760;9.152;2022-12-31T15:39:17;18.40;95.20
1950;DHT22;975;48.760;9.152;2022-12-31T15:41:48;18.40;95.60
1950;DHT22;975;48.760;9.152;2022-12-31T15:44:23;18.20;95.80
1950;DHT22;975;48.760;9.152;2022-12-31T15:46:56;18.10;95.90
1950;DHT22;975;48.760;9.152;2022-12-31T15:49:31;18.00;96.40
1950;DHT22;975;48.760;9.152;2022-12-31T15:52:05;17.80;96.50
1950;DHT22;975;48.760;9.152;2022-12-31T15:54:36;17.60;97.10
1950;DHT22;975;48.760;9.152;2022-12-31T15:57:04;17.50;97.60
1950;DHT22;975;48.760;9.152;2022-12-31T15:59:34;17.40;98.10
1950;DHT22;975;48.760;9.152;2022-12-31T16:02:03;17.30;98.10
1950;DHT22;975;48.760;9.152;2022-12-31T16:04:30;17.10;98.50
1950;DHT22;975;48.760;9.152;2022-12-31T16:06:59;17.00;98.50
1950;DHT22;975;48.760;9.152;2022-12-31T16:09:29;16.80;99.20
1950;DHT22;975;48.760;9.152;2022-12-31T16:11:57;16.70;99.60
1950;DHT22;975;48.760;9.152;2022-12-31T16:14:31;16.60;99.70
1950;DHT22;975;48.760;9.152;2022-12-31T16:17:02;16.50;99.90
1950;DHT22;975;48.760;9.152;2022-12-31T16:19:32;16.40;99.90
1950;DHT22;975;48.760;9.152;2022-12-31T16:22:06;16.30;99.90
1950;DHT22;975;48.760;9.152;2022-12-31T16:24:34;16.20;99.90
1950;DHT22;975;48.760;9.152;2022-12-31T16:27:05;16.10;99.90
1950;DHT22;975;48.760;9.152;2022-12-31T16:29:35;16.10;99.90
1950;DHT22;975;48.760;9.152;2022-12-31T16:32:04;16.00;99.90
1950;DHT22;975;48.760;9.152;2022-12-31T16:34:37;15.90;99.90
1950;DHT22;975;48.760;9.152;2022-12-31T16:37:06;15.80;99.90
1950;DHT22;975;48.760;9.152;2022-12-31T16:40:10;15.80;99.90
1950;DHT22;975;48.760;9.152;2022-12-31T16:42:44;15.60;99.90
1950;DHT22;975;48.760;9.152;2022-12-31T16:45:29;15.60;99.90
1950;DHT22;975;48.760;9.152;2022-12-31T16:48:01;15.50;99.90
1950;DHT22;975;48.760;9.152;2022-12-31T16:50:33;15.40;99.90
1950;DHT22;975;48.760;9.152;2022-12-31T16:53:03;15.40;99.90
1950;DHT22;975;48.760;9.152;2022-12-31T16:55:33;15.30;99.90
1950;DHT22;975;48.760;9.152;2022-12-31T16:58:09;15.20;99.90
1950;DHT22;975;48.760;9.152;2022-12-31T17:00:38;15.10;99.90
1950;DHT22;975;48.760;9.152;2022-12-31T17:03:16;15.10;99.90
1950;DHT22;975;48.760;9.152;2022-12-31T17:06:10;15.00;99.90
1950;DHT22;975;48.760;9.152;2022-12-31T17:08:40;15.00;99.90
1950;DHT22;975;48.760;9.152;2022-12-31T17:11:23;14.90;99.90
1950;DHT22;975;48.760;9.152;2022-12-31T17:13:55;14.80;99.90
1950;DHT22;975;48.760;9.152;2022-12-31T17:16:24;14.70;99.90
1950;DHT22;975;48.760;9.152;2022-12-31T17:18:53;14.60;99.90
1950;DHT22;975;48.760;9.152;2022-12-31T17:21:23;14.60;99.90
1950;DHT22;975;48.760;9.152;2022-12-31T17:23:54;14.60;99.90
1950;DHT22;975;48.760;9.152;2022-12-31T17:26:24;14.50;99.90
1950;DHT22;975;48.760;9.152;2022-12-31T17:28:54;14.50;99.90
1950;DHT22;975;48.760;9.152;2022-12-31T17:31:29;14.50;99.90
1950;DHT22;975;48.760;9.152;2022-12-31T17:34:21;14.40;99.90
1950;DHT22;975;48.760;9.152;2022-12-31T17:37:01;14.40;99.90
1950;DHT22;975;48.760;9.152;2022-12-31T17:39:44;14.30;99.90
1950;DHT22;975;48.760;9.152;2022-12-31T17:42:14;14.30;99.90
1950;DHT22;975;48.760;9.152;2022-12-31T17:44:43;14.30;99.90
1950;DHT22;975;48.760;9.152;2022-12-31T17:47:11;14.20;99.90
1950;DHT22;975;48.760;9.152;2022-12-31T17:49:43;14.20;99.90
1950;DHT22;975;48.760;9.152;2022-12-31T17:52:13;14.10;99.90
1950;DHT22;975;48.760;9.152;2022-12-31T17:54:40;14.10;99.90
1950;DHT22;975;48.760;9.152;2022-12-31T17:57:20;14.10;99.90
1950;DHT22;975;48.760;9.152;2022-12-31T17:59:48;14.00;99.90
1950;DHT22;975;48.760;9.152;2022-12-31T18:02:16;13.90;99.90
1950;DHT22;975;48.760;9.152;2022-12-31T18:04:45;13.90;99.90
1950;DHT22;975;48.760;9.152;2022-12-31T18:07:12;13.80;99.90
1950;DHT22;975;48.760;9.152;2022-12-31T18:09:40;13.80;99.90
1950;DHT22;975;48.760;9.152;2022-12-31T18:12:11;13.80;99.90
1950;DHT22;975;48.760;9.152;2022-12-31T18:14:41;13.80;99.90
1950;DHT22;975;48.760;9.152;2022-12-31T18:17:11;13.70;99.90
1950;DHT22;975;48.760;9.152;2022-12-31T18:19:39;13.70;99.90
1950;DHT22;975;48.760;9.152;2022-12-31T18:22:12;13.70;99.90
1950;DHT22;975;48.760;9.152;2022-12-31T18:24:40;13.60;99.90
1950;DHT22;975;48.760;9.152;2022-12-31T18:27:13;13.60;99.90
1950;DHT22;975;48.760;9.152;2022-12-31T18:29:41;13.50;99.90
1950;DHT22;975;48.760;9.152;2022-12-31T18:32:17;13.50;99.90
1950;DHT22;975;48.760;9.152;2022-12-31T18:34:45;13.40;99.90
1950;DHT22;975;48.760;9.152;2022-12-31T18:37:15;13.40;99.90
1950;DHT22;975;48.760;9.152;2022-12-31T18:39:43;13.30;99.90
1950;DHT22;975;48.760;9.152;2022-12-31T18:42:12;13.30;99.90
1950;DHT22;975;48.760;9.152;2022-12-31T18:44:41;13.20;99.90
1950;DHT22;975;48.760;9.152;2022-12-31T18:47:10;13.20;99.90
1950;DHT22;975;48.760;9.152;2022-12-31T18:49:38;13.10;99.90
1950;DHT22;975;48.760;9.152;2022-12-31T18:52:08;13.10;99.90
1950;DHT22;975;48.760;9.152;2022-12-31T18:54:39;13.10;99.90
1950;DHT22;975;48.760;9.152;2022-12-31T18:57:08;13.00;99.90
1950;DHT22;975;48.760;9.152;2022-12-31T18:59:36;12.90;99.90
1950;DHT22;975;48.760;9.152;2022-12-31T19:02:04;13.00;99.90
1950;DHT22;975;48.760;9.152;2022-12-31T19:04:37;13.10;99.90
1950;DHT22;975;48.760;9.152;2022-12-31T19:07:05;13.00;99.90
1950;DHT22;975;48.760;9.152;2022-12-31T19:09:32;13.10;99.90
1950;DHT22;975;48.760;9.152;2022-12-31T19:12:00;13.10;99.90
1950;DHT22;975;48.760;9.152;2022-12-31T19:14:28;13.10;99.90
1950;DHT22;975;48.760;9.152;2022-12-31T19:16:55;13.20;99.90
1950;DHT22;975;48.760;9.152;2022-12-31T19:19:23;13.20;99.90
1950;DHT22;975;48.760;9.152;2022-12-31T19:21:51;13.20;99.90
1950;DHT22;975;48.760;9.152;2022-12-31T19:24:19;13.20;99.90
1950;DHT22;975;48.760;9.152;2022-12-31T19:26:48;13.20;99.90
1950;DHT22;975;48.760;9.152;2022-12-31T19:29:19;13.20;99.90
1950;DHT22;975;48.760;9.152;2022-12-31T19:31:47;13.20;99.90
1950;DHT22;975;48.760;9.152;2022-12-31T19:34:14;13.20;99.90
1950;DHT22;975;48.760;9.152;2022-12-31T19:36:43;13.20;99.90
1950;DHT22;975;48.760;9.152;2022-12-31T19:39:14;13.10;99.90
1950;DHT22;975;48.760;9.152;2022-12-31T19:41:42;13.10;99.90
1950;DHT22;975;48.760;9.152;2022-12-31T19:44:13;13.10;99.90
1950;DHT22;975;48.760;9.152;2022-12-31T19:46:43;13.10;99.90
1950;DHT22;975;48.760;9.152;2022-12-31T19:49:11;13.10;99.90
1950;DHT22;975;48.760;9.152;2022-12-31T19:51:39;13.00;99.90
1950;DHT22;975;48.760;9.152;2022-12-31T19:54:07;13.00;99.90
1950;DHT22;975;48.760;9.152;2022-12-31T19:56:35;13.00;99.90
1950;DHT22;975;48.760;9.152;2022-12-31T19:59:03;13.00;99.90
1950;DHT22;975;48.760;9.152;2022-12-31T20:01:31;13.00;99.90
1950;DHT22;975;48.760;9.152;2022-12-31T20:04:00;13.00;99.90
1950;DHT22;975;48.760;9.152;2022-12-31T20:06:27;13.00;99.90
1950;DHT22;975;48.760;9.152;2022-12-31T20:08:54;13.00;99.90
1950;DHT22;975;48.760;9.152;2022-12-31T20:11:23;13.00;99.90
1950;DHT22;975;48.760;9.152;2022-12-31T20:13:51;13.00;99.90
1950;DHT22;975;48.760;9.152;2022-12-31T20:16:21;13.00;99.90
1950;DHT22;975;48.760;9.152;2022-12-31T20:18:49;12.90;99.90
1950;DHT22;975;48.760;9.152;2022-12-31T20:21:20;12.90;99.90
1950;DHT22;975;48.760;9.152;2022-12-31T20:23:48;12.90;99.90
1950;DHT22;975;48.760;9.152;2022-12-31T20:26:17;12.90;99.90
1950;DHT22;975;48.760;9.152;2022-12-31T20:28:44;12.90;99.90
1950;DHT22;975;48.760;9.152;2022-12-31T20:31:13;12.90;99.90
1950;DHT22;975;48.760;9.152;2022-12-31T20:33:41;12.90;99.90
1950;DHT22;975;48.760;9.152;2022-12-31T20:36:10;12.90;99.90
1950;DHT22;975;48.760;9.152;2022-12-31T20:38:40;12.90;99.90
1950;DHT22;975;48.760;9.152;2022-12-31T20:41:09;12.90;99.90
1950;DHT22;975;48.760;9.152;2022-12-31T20:43:36;12.90;99.90
1950;DHT22;975;48.760;9.152;2022-12-31T20:46:06;13.00;99.90
1950;DHT22;975;48.760;9.152;2022-12-31T20:48:33;12.90;99.90
1950;DHT22;975;48.760;9.152;2022-12-31T20:51:01;13.00;99.90
1950;DHT22;975;48.760;9.152;2022-12-31T20:53:28;13.00;99.90
1950;DHT22;975;48.760;9.152;2022-12-31T20:56:01;13.00;99.90
1950;DHT22;975;48.760;9.152;2022-12-31T20:58:29;13.00;99.90
1950;DHT22;975;48.760;9.152;2022-12-31T21:00:56;13.00;99.90
1950;DHT22;975;48.760;9.152;2022-12-31T21:03:24;13.00;99.90
1950;DHT22;975;48.760;9.152;2022-12-31T21:05:53;13.00;99.90
1950;DHT22;975;48.760;9.152;2022-12-31T21:08:20;13.00;99.90
1950;DHT22;975;48.760;9.152;2022-12-31T21:10:49;13.00;99.90
1950;DHT22;975;48.760;9.152;2022-12-31T21:13:17;13.00;99.90
1950;DHT22;975;48.760;9.152;2022-12-31T21:15:47;12.90;99.90
1950;DHT22;975;48.760;9.152;2022-12-31T21:18:15;12.80;99.90
1950;DHT22;975;48.760;9.152;2022-12-31T21:20:45;12.80;99.90
1950;DHT22;975;48.760;9.152;2022-12-31T21:23:13;12.90;99.90
1950;DHT22;975;48.760;9.152;2022-12-31T21:25:40;12.80;99.90
1950;DHT22;975;48.760;9.152;2022-12-31T21:28:08;12.70;99.90
1950;DHT22;975;48.760;9.152;2022-12-31T21:30:38;12.70;99.90
1950;DHT22;975;48.760;9.152;2022-12-31T21:33:06;12.70;99.90
1950;DHT22;975;48.760;9.152;2022-12-31T21:35:34;12.60;99.90
1950;DHT22;975;48.760;9.152;2022-12-31T21:38:02;12.60;99.90
1950;DHT22;975;48.760;9.152;2022-12-31T21:40:31;12.50;99.90
1950;DHT22;975;48.760;9.152;2022-12-31T21:42:58;12.50;99.90
1950;DHT22;975;48.760;9.152;2022-12-31T21:45:25;12.40;99.90
1950;DHT22;975;48.760;9.152;2022-12-31T21:47:57;12.40;99.90
1950;DHT22;975;48.760;9.152;2022-12-31T21:50:42;12.40;99.90
1950;DHT22;975;48.760;9.152;2022-12-31T21:53:11;12.40;99.90
1950;DHT22;975;48.760;9.152;2022-12-31T21:55:38;12.30;99.90
1950;DHT22;975;48.760;9.152;2022-12-31T21:58:23;12.30;99.90
1950;DHT22;975;48.760;9.152;2022-12-31T22:00:50;12.30;99.90
1950;DHT22;975;48.760;9.152;2022-12-31T22:03:36;12.20;99.90
1950;DHT22;975;48.760;9.152;2022-12-31T22:06:05;12.20;99.90
1950;DHT22;975;48.760;9.152;2022-12-31T22:08:35;12.20;99.90
1950;DHT22;975;48.760;9.152;2022-12-31T22:11:03;12.10;99.90
1950;DHT22;975;48.760;9.152;2022-12-31T22:13:31;12.00;99.90
1950;DHT22;975;48.760;9.152;2022-12-31T22:15:59;12.00;99.90
1950;DHT22;975;48.760;9.152;2022-12-31T22:18:27;12.00;99.90
1950;DHT22;975;48.760;9.152;2022-12-31T22:21:04;12.00;99.90
1950;DHT22;975;48.760;9.152;2022-12-31T22:23:33;12.00;99.90
1950;DHT22;975;48.760;9.152;2022-12-31T22:26:01;12.00;99.90
1950;DHT22;975;48.760;9.152;2022-12-31T22:28:29;12.00;99.90
1950;DHT22;975;48.760;9.152;2022-12-31T22:31:01;12.00;99.90
1950;DHT22;975;48.760;9.152;2022-12-31T22:33:33;12.00;99.90
1950;DHT22;975;48.760;9.152;2022-12-31T22:36:04;12.00;99.90
1950;DHT22;975;48.760;9.152;2022-12-31T22:38:33;11.90;99.90
1950;DHT22;975;48.760;9.152;2022-12-31T22:41:03;11.90;99.90
1950;DHT22;975;48.760;9.152;2022-12-31T22:43:31;11.90;99.90